Time;durP1;ratioP1;P1;durP2;ratioP2;P2;SDS_P1;SDS_P2;PMS_P1;PMS_P2;Temp;Humidity;BMP_temperature;BMP_pressure;BME280_temperature;BME280_humidity;BME280_pressure;Samples;Min_cycle;Max_cycle;Signal;HPM_P1;HPM_P2
2021/10/03 00:01:22;;;;;;;3.72;3.40;;;17.80;99.90;;;;;;4967075;28;20201;-70
2021/10/03 00:03:50;;;;;;;3.33;2.67;;;17.80;99.90;;;;;;4967761;28;20199;-68
2021/10/03 00:06:17;;;;;;;4.97;3.03;;;17.80;99.90;;;;;;4969065;28;20302;-68
2021/10/03 00:08:43;;;;;;;3.40;2.85;;;17.90;99.90;;;;;;4969984;28;20177;-68
2021/10/03 00:11:10;;;;;;;3.40;3.10;;;17.90;99.90;;;;;;4967678;28;20208;-66
2021/10/03 00:13:36;;;;;;;3.15;2.85;;;17.90;99.90;;;;;;4966848;28;20201;-66
2021/10/03 00:16:03;;;;;;;5.53;2.70;;;17.90;99.90;;;;;;4967707;28;20319;-70
2021/10/03 00:18:30;;;;;;;3.65;3.25;;;17.90;99.90;;;;;;4967608;28;20656;-68
2021/10/03 00:20:57;;;;;;;3.80;2.97;;;17.90;99.90;;;;;;4974769;28;20326;-70
2021/10/03 00:23:23;;;;;;;4.10;2.70;;;17.90;99.90;;;;;;4967086;28;20177;-66
2021/10/03 00:25:50;;;;;;;3.90;3.08;;;17.90;99.90;;;;;;4977093;28;20632;-69
2021/10/03 00:28:17;;;;;;;4.97;2.95;;;17.90;99.90;;;;;;4967140;28;20196;-68
2021/10/03 00:30:44;;;;;;;6.55;3.17;;;17.90;99.90;;;;;;4972870;28;20204;-68
2021/10/03 00:33:10;;;;;;;3.67;2.72;;;17.90;99.90;;;;;;4975348;28;20209;-68
2021/10/03 00:35:37;;;;;;;3.05;2.53;;;17.90;99.90;;;;;;4972291;28;20538;-69
2021/10/03 00:38:04;;;;;;;3.25;2.90;;;17.90;99.90;;;;;;4970205;28;20603;-70
2021/10/03 00:40:34;;;;;;;4.13;3.08;;;18.00;99.90;;;;;;4967444;28;20184;-67
2021/10/03 00:43:01;;;;;;;2.67;2.38;;;18.00;99.90;;;;;;4966421;28;20665;-70
2021/10/03 00:45:29;;;;;;;2.97;2.55;;;17.90;99.90;;;;;;4972077;28;20586;-69
2021/10/03 00:47:54;;;;;;;3.10;2.80;;;18.00;99.90;;;;;;4971044;28;20185;-69
2021/10/03 00:50:20;;;;;;;3.40;2.38;;;18.00;99.90;;;;;;4967870;28;20192;-70
2021/10/03 00:52:47;;;;;;;3.38;3.08;;;17.90;99.90;;;;;;4968868;28;20208;-68
2021/10/03 00:55:14;;;;;;;3.00;2.50;;;17.90;99.90;;;;;;4966112;28;20535;-68
2021/10/03 00:57:44;;;;;;;3.17;2.88;;;17.90;99.90;;;;;;4966931;28;20212;-68
2021/10/03 01:00:11;;;;;;;3.22;2.92;;;17.90;99.90;;;;;;4967216;28;20695;-69
2021/10/03 01:02:37;;;;;;;3.10;2.58;;;17.90;99.90;;;;;;4970164;28;20699;-67
2021/10/03 01:05:05;;;;;;;3.22;2.92;;;18.00;99.90;;;;;;4967446;28;20173;-69
2021/10/03 01:07:31;;;;;;;2.90;2.33;;;18.00;99.90;;;;;;4966515;28;20189;-68
2021/10/03 01:09:57;;;;;;;4.70;2.70;;;18.00;99.90;;;;;;4966454;28;20260;-69
2021/10/03 01:12:22;;;;;;;3.28;2.83;;;18.00;99.90;;;;;;4965965;28;20251;-68
2021/10/03 01:14:48;;;;;;;3.35;2.58;;;18.00;99.90;;;;;;4967038;28;20344;-68
2021/10/03 01:17:14;;;;;;;3.00;2.47;;;18.00;99.90;;;;;;4966887;28;20540;-67
2021/10/03 01:19:40;;;;;;;3.17;2.50;;;18.00;99.90;;;;;;4967140;28;20181;-68
2021/10/03 01:22:05;;;;;;;3.30;2.42;;;18.00;99.90;;;;;;4966060;28;20204;-68
2021/10/03 01:24:33;;;;;;;2.65;2.33;;;18.10;99.90;;;;;;4969539;28;20633;-69
2021/10/03 01:27:02;;;;;;;2.60;2.40;;;18.00;99.90;;;;;;4966500;28;20730;-66
2021/10/03 01:29:29;;;;;;;2.30;2.10;;;18.00;99.90;;;;;;4966181;28;20243;-69
2021/10/03 01:31:55;;;;;;;2.60;2.30;;;18.00;99.90;;;;;;4968329;28;20381;-68
2021/10/03 01:34:21;;;;;;;2.67;2.13;;;18.00;99.90;;;;;;4966227;28;20284;-66
2021/10/03 01:36:47;;;;;;;2.80;2.50;;;18.00;99.90;;;;;;4966581;28;20924;-70
2021/10/03 01:39:12;;;;;;;2.55;2.30;;;18.10;99.90;;;;;;4968090;28;20232;-70
2021/10/03 01:41:38;;;;;;;2.72;2.45;;;18.10;99.90;;;;;;4972000;28;20211;-69
2021/10/03 01:44:04;;;;;;;2.55;2.35;;;18.10;99.90;;;;;;4972287;28;20267;-68
2021/10/03 01:46:29;;;;;;;2.70;2.40;;;18.00;99.90;;;;;;4966152;28;20192;-68
2021/10/03 01:48:55;;;;;;;2.50;2.22;;;18.00;99.90;;;;;;4968248;28;20540;-66
2021/10/03 01:51:21;;;;;;;3.22;2.38;;;18.00;99.90;;;;;;4971916;28;20244;-70
2021/10/03 01:53:53;;;;;;;3.75;2.30;;;17.90;99.90;;;;;;4968764;28;20610;-69
2021/10/03 01:56:21;;;;;;;2.97;2.25;;;18.00;99.90;;;;;;4965660;28;20873;-67
2021/10/03 01:58:55;;;;;;;4.05;2.53;;;18.00;99.90;;;;;;4969975;28;20180;-67
2021/10/03 02:01:29;;;;;;;4.25;2.30;;;17.90;99.90;;;;;;4966262;28;20431;-69
2021/10/03 02:03:55;;;;;;;2.85;2.50;;;17.90;99.90;;;;;;4965514;28;20208;-67
2021/10/03 02:06:21;;;;;;;3.20;2.20;;;17.90;99.90;;;;;;4965947;28;20232;-69
2021/10/03 02:08:53;;;;;;;2.88;2.45;;;17.90;99.90;;;;;;4965671;28;20629;-69
2021/10/03 02:11:19;;;;;;;2.67;2.38;;;17.90;99.90;;;;;;4965835;28;20204;-67
2021/10/03 02:13:45;;;;;;;3.00;2.17;;;17.90;99.90;;;;;;4965145;28;20219;-68
2021/10/03 02:16:11;;;;;;;2.50;2.15;;;17.90;99.90;;;;;;4964601;28;20189;-69
2021/10/03 02:18:39;;;;;;;2.75;2.20;;;17.90;99.90;;;;;;4965830;28;20192;-70
2021/10/03 02:21:06;;;;;;;2.25;2.05;;;17.90;99.90;;;;;;4965677;28;20204;-67
2021/10/03 02:23:33;;;;;;;4.13;2.25;;;17.90;99.90;;;;;;4964693;28;20193;-65
2021/10/03 02:25:59;;;;;;;2.63;2.38;;;18.00;99.90;;;;;;4965940;28;20210;-68
2021/10/03 02:28:26;;;;;;;2.47;2.20;;;17.90;99.90;;;;;;4965081;28;20611;-69
2021/10/03 02:30:56;;;;;;;3.08;2.50;;;17.90;99.90;;;;;;4965507;28;20216;-69
2021/10/03 02:33:22;;;;;;;2.53;2.17;;;17.90;99.90;;;;;;4964603;28;20247;-69
2021/10/03 02:35:48;;;;;;;2.63;2.30;;;17.90;99.90;;;;;;4965691;28;20185;-71
2021/10/03 02:38:19;;;;;;;3.15;2.42;;;17.90;99.90;;;;;;4965114;28;20204;-68
2021/10/03 02:40:47;;;;;;;2.42;2.22;;;18.00;99.90;;;;;;4966311;28;20564;-70
2021/10/03 02:43:14;;;;;;;2.65;2.05;;;18.00;99.90;;;;;;4971219;28;20184;-67
2021/10/03 02:45:43;;;;;;;2.30;2.10;;;17.90;99.90;;;;;;4971685;28;20195;-66
2021/10/03 02:48:09;;;;;;;2.38;1.98;;;17.90;99.90;;;;;;4975651;28;20289;-65
2021/10/03 02:50:35;;;;;;;3.10;2.30;;;17.90;99.90;;;;;;4969532;28;20224;-68
2021/10/03 02:53:02;;;;;;;2.88;2.20;;;17.90;99.90;;;;;;4964609;28;20329;-66
2021/10/03 02:55:28;;;;;;;3.13;2.05;;;17.90;99.90;;;;;;4969657;28;20279;-70
2021/10/03 02:57:54;;;;;;;2.30;2.10;;;17.90;99.90;;;;;;4969177;28;20188;-69
2021/10/03 03:00:19;;;;;;;3.30;2.10;;;17.90;99.90;;;;;;4972952;28;20188;-69
2021/10/03 03:02:45;;;;;;;2.85;2.08;;;17.90;99.90;;;;;;4965408;28;20193;-68
2021/10/03 03:05:11;;;;;;;2.20;2.00;;;17.90;99.90;;;;;;4965664;28;20189;-69
2021/10/03 03:07:37;;;;;;;2.20;2.00;;;17.90;99.90;;;;;;4964748;28;20188;-69
2021/10/03 03:10:08;;;;;;;3.05;2.22;;;18.00;99.90;;;;;;4969235;28;20263;-67
2021/10/03 03:12:35;;;;;;;4.35;2.70;;;17.90;99.90;;;;;;4966728;28;20283;-68
2021/10/03 03:15:01;;;;;;;2.10;1.90;;;17.90;99.90;;;;;;4976860;28;20180;-68
2021/10/03 03:17:27;;;;;;;3.38;2.42;;;18.00;99.90;;;;;;4975514;28;20680;-70
2021/10/03 03:19:53;;;;;;;2.42;2.08;;;18.00;99.90;;;;;;4974485;28;20173;-68
2021/10/03 03:22:18;;;;;;;3.67;2.30;;;18.00;99.90;;;;;;4968103;28;20359;-68
2021/10/03 03:24:44;;;;;;;3.33;2.22;;;18.00;99.90;;;;;;4971434;28;20185;-67
2021/10/03 03:27:10;;;;;;;2.75;2.05;;;18.00;99.90;;;;;;4970091;28;20180;-69
2021/10/03 03:29:36;;;;;;;3.70;2.47;;;17.90;99.90;;;;;;4976468;28;20328;-68
2021/10/03 03:32:02;;;;;;;1.85;1.75;;;18.00;99.90;;;;;;4967683;28;20228;-68
2021/10/03 03:34:28;;;;;;;2.22;2.03;;;18.00;99.90;;;;;;4970482;28;20188;-68
2021/10/03 03:36:54;;;;;;;2.70;2.25;;;17.90;99.90;;;;;;4972739;28;20184;-68
2021/10/03 03:39:20;;;;;;;2.60;2.22;;;18.00;99.90;;;;;;4968220;28;20540;-70
2021/10/03 03:41:46;;;;;;;5.43;2.10;;;18.10;99.90;;;;;;4973277;28;20657;-67
2021/10/03 03:44:11;;;;;;;2.70;2.40;;;18.20;99.90;;;;;;4968264;28;20196;-66
2021/10/03 03:46:37;;;;;;;4.53;1.88;;;18.10;99.90;;;;;;4968445;28;20252;-68
2021/10/03 03:49:03;;;;;;;3.58;1.90;;;18.10;99.90;;;;;;4973947;28;20169;-69
2021/10/03 03:51:29;;;;;;;1.80;1.70;;;18.00;99.90;;;;;;4967518;28;20192;-65
2021/10/03 03:53:55;;;;;;;2.08;1.88;;;18.00;99.90;;;;;;4967808;28;20235;-69
2021/10/03 03:56:21;;;;;;;2.58;2.38;;;18.00;99.90;;;;;;4968274;28;20196;-69
2021/10/03 03:58:46;;;;;;;2.20;2.00;;;17.90;99.90;;;;;;4967839;28;20181;-70
2021/10/03 04:01:12;;;;;;;2.47;2.20;;;18.00;99.90;;;;;;4966574;28;20232;-67
2021/10/03 04:03:37;;;;;;;2.05;1.85;;;18.00;99.90;;;;;;4967105;28;20181;-70
2021/10/03 04:06:04;;;;;;;2.53;2.10;;;18.10;99.90;;;;;;4968943;28;20188;-70
2021/10/03 04:08:30;;;;;;;2.38;1.98;;;18.20;99.90;;;;;;4967734;28;20185;-71
2021/10/03 04:10:56;;;;;;;3.15;2.13;;;18.30;99.90;;;;;;4967851;28;20228;-68
2021/10/03 04:13:22;;;;;;;2.05;1.85;;;18.30;99.90;;;;;;4973442;28;20660;-70
2021/10/03 04:15:48;;;;;;;2.58;2.10;;;18.40;99.90;;;;;;4968055;28;20656;-69
2021/10/03 04:18:14;;;;;;;3.58;1.80;;;18.50;99.90;;;;;;4967249;28;20258;-70
2021/10/03 04:20:40;;;;;;;2.65;1.90;;;18.40;99.90;;;;;;4967637;28;20201;-69
2021/10/03 04:23:06;;;;;;;2.67;2.10;;;18.30;99.90;;;;;;4965252;28;20185;-68
2021/10/03 04:25:32;;;;;;;2.17;1.98;;;18.40;99.90;;;;;;4971199;28;20188;-70
2021/10/03 04:27:58;;;;;;;2.83;2.00;;;18.40;99.90;;;;;;4969312;28;20184;-70
2021/10/03 04:30:23;;;;;;;2.53;2.05;;;18.50;99.90;;;;;;4966153;28;20188;-68
2021/10/03 04:32:49;;;;;;;2.40;1.90;;;18.50;99.90;;;;;;4966309;28;20213;-70
2021/10/03 04:35:15;;;;;;;2.78;2.25;;;18.60;99.90;;;;;;4972756;28;20212;-67
2021/10/03 04:37:41;;;;;;;2.60;1.92;;;18.70;99.90;;;;;;4969108;28;20189;-65
2021/10/03 04:40:07;;;;;;;2.10;1.80;;;18.80;99.90;;;;;;4974933;28;20840;-68
2021/10/03 04:42:33;;;;;;;2.40;1.95;;;18.90;99.90;;;;;;4967010;28;20201;-69
2021/10/03 04:44:59;;;;;;;3.13;1.75;;;18.90;99.90;;;;;;4971181;28;20181;-68
2021/10/03 04:47:25;;;;;;;2.67;1.90;;;19.00;99.90;;;;;;4974815;28;20700;-70
2021/10/03 04:49:53;;;;;;;1.98;1.83;;;19.00;99.90;;;;;;4971608;28;20185;-69
2021/10/03 04:52:20;;;;;;;2.35;1.98;;;19.10;99.90;;;;;;4966152;28;20201;-69
2021/10/03 04:54:46;;;;;;;2.03;1.80;;;19.10;99.90;;;;;;4966909;28;20279;-69
2021/10/03 04:57:11;;;;;;;2.55;2.17;;;19.20;99.90;;;;;;4973660;28;20225;-65
2021/10/03 04:59:37;;;;;;;2.67;2.00;;;19.20;99.90;;;;;;4966697;28;20925;-67
2021/10/03 05:02:02;;;;;;;2.38;2.05;;;19.20;99.90;;;;;;4973799;28;20200;-67
2021/10/03 05:04:28;;;;;;;1.83;1.52;;;19.30;99.90;;;;;;4969094;28;20703;-69
2021/10/03 05:06:54;;;;;;;2.80;1.95;;;19.40;99.90;;;;;;4973029;28;20185;-70
2021/10/03 05:09:19;;;;;;;2.08;1.88;;;19.40;99.90;;;;;;4974621;28;20199;-68
2021/10/03 05:11:45;;;;;;;2.67;1.90;;;19.40;99.90;;;;;;4969882;28;20227;-71
2021/10/03 05:14:10;;;;;;;2.08;1.85;;;19.40;99.90;;;;;;4969433;28;20191;-66
2021/10/03 05:16:37;;;;;;;3.78;1.90;;;19.40;99.90;;;;;;4972831;28;20577;-70
2021/10/03 05:19:04;;;;;;;2.75;1.85;;;19.40;99.90;;;;;;4973740;28;20327;-67
2021/10/03 05:21:30;;;;;;;2.10;1.92;;;19.40;99.90;;;;;;4967717;28;20216;-67
2021/10/03 05:23:55;;;;;;;2.13;1.92;;;19.30;99.90;;;;;;4976281;28;20876;-67
2021/10/03 05:26:21;;;;;;;2.75;2.17;;;19.30;99.90;;;;;;4967541;28;20336;-67
2021/10/03 05:28:47;;;;;;;2.47;2.17;;;19.20;99.90;;;;;;4972113;28;20647;-66
2021/10/03 05:31:12;;;;;;;3.22;2.05;;;19.30;99.90;;;;;;4973990;28;20226;-68
2021/10/03 05:33:39;;;;;;;2.13;1.92;;;19.30;99.90;;;;;;4969907;28;20586;-69
2021/10/03 05:36:05;;;;;;;1.88;1.70;;;19.20;99.90;;;;;;4971712;28;21219;-68
2021/10/03 05:38:30;;;;;;;2.72;1.90;;;19.10;99.90;;;;;;4974827;28;20184;-67
2021/10/03 05:40:56;;;;;;;2.42;1.40;;;19.20;99.90;;;;;;4970602;28;20259;-68
2021/10/03 05:43:22;;;;;;;1.95;1.73;;;19.20;99.90;;;;;;4968422;28;20184;-68
2021/10/03 05:45:47;;;;;;;1.90;1.80;;;19.10;99.90;;;;;;4969226;28;20237;-71
2021/10/03 05:48:13;;;;;;;2.28;1.88;;;19.00;99.90;;;;;;4966360;28;20184;-68
2021/10/03 05:50:38;;;;;;;2.38;2.17;;;19.10;99.90;;;;;;4968619;28;20266;-66
2021/10/03 05:53:04;;;;;;;2.05;1.85;;;19.20;99.90;;;;;;4974374;28;20417;-69
2021/10/03 05:55:30;;;;;;;2.22;1.88;;;19.40;99.90;;;;;;4966432;28;20188;-69
2021/10/03 05:57:55;;;;;;;2.03;1.83;;;19.50;99.90;;;;;;4972535;28;20637;-69
2021/10/03 06:00:21;;;;;;;2.58;1.83;;;19.40;99.90;;;;;;4974465;28;20430;-69
2021/10/03 06:02:47;;;;;;;2.45;2.10;;;19.30;99.90;;;;;;4964515;28;20207;-69
2021/10/03 06:05:12;;;;;;;2.15;1.92;;;19.30;99.90;;;;;;4971460;28;20303;-68
2021/10/03 06:07:38;;;;;;;2.40;1.80;;;19.10;99.90;;;;;;4968308;28;20188;-67
2021/10/03 06:10:07;;;;;;;1.98;1.77;;;19.10;99.90;;;;;;4971544;28;20696;-65
2021/10/03 06:12:33;;;;;;;2.30;1.80;;;18.90;99.90;;;;;;4965291;28;20201;-66
2021/10/03 06:14:58;;;;;;;2.15;2.05;;;18.80;99.90;;;;;;4965871;28;20177;-67
2021/10/03 06:17:24;;;;;;;3.40;2.10;;;18.60;99.90;;;;;;4966671;28;20200;-70
2021/10/03 06:19:50;;;;;;;3.67;1.90;;;18.50;99.90;;;;;;4969654;28;20215;-70
2021/10/03 06:22:16;;;;;;;2.65;1.83;;;18.50;99.90;;;;;;4966856;28;20258;-69
2021/10/03 06:24:42;;;;;;;2.63;2.20;;;18.40;99.90;;;;;;4973067;28;20181;-68
2021/10/03 06:27:07;;;;;;;3.63;1.85;;;18.30;99.90;;;;;;4969380;28;20180;-67
2021/10/03 06:29:33;;;;;;;3.28;1.90;;;18.30;99.90;;;;;;4967772;28;20187;-68
2021/10/03 06:31:58;;;;;;;2.40;1.80;;;18.30;99.90;;;;;;4969456;28;20212;-68
2021/10/03 06:34:24;;;;;;;2.10;1.90;;;18.30;99.90;;;;;;4967314;28;20184;-68
2021/10/03 06:36:49;;;;;;;2.10;1.75;;;18.40;99.90;;;;;;4965169;28;20185;-67
2021/10/03 06:39:16;;;;;;;2.65;1.73;;;18.40;99.90;;;;;;4970236;28;20191;-67
2021/10/03 06:41:41;;;;;;;2.08;1.88;;;18.40;99.90;;;;;;4964577;28;20196;-68
2021/10/03 06:44:07;;;;;;;2.65;1.40;;;18.40;99.90;;;;;;4970139;28;20188;-70
2021/10/03 06:46:33;;;;;;;2.10;1.80;;;18.40;99.90;;;;;;4969003;28;20195;-69
2021/10/03 06:48:58;;;;;;;2.22;1.70;;;18.30;99.90;;;;;;4973817;28;20670;-70
2021/10/03 06:51:24;;;;;;;3.50;1.85;;;18.40;99.90;;;;;;4968469;28;20295;-69
2021/10/03 06:53:50;;;;;;;2.95;1.60;;;18.40;99.90;;;;;;4970522;28;20308;-69
2021/10/03 06:56:15;;;;;;;2.38;2.08;;;18.40;99.90;;;;;;4974309;28;20267;-69
2021/10/03 06:58:41;;;;;;;1.85;1.67;;;18.30;99.90;;;;;;4968688;28;20452;-69
2021/10/03 07:01:07;;;;;;;2.65;1.85;;;18.30;99.90;;;;;;4974857;28;20200;-69
2021/10/03 07:03:33;;;;;;;2.85;1.90;;;18.30;99.90;;;;;;4973013;28;20187;-67
2021/10/03 07:05:58;;;;;;;1.88;1.45;;;18.30;99.90;;;;;;4972689;28;20189;-70
2021/10/03 07:08:24;;;;;;;2.30;1.70;;;18.30;99.90;;;;;;4969037;28;20181;-69
2021/10/03 07:10:50;;;;;;;3.35;2.13;;;18.40;99.90;;;;;;4970303;28;20262;-70
2021/10/03 07:13:15;;;;;;;1.92;1.67;;;18.40;99.90;;;;;;4971970;28;20299;-68
2021/10/03 07:15:41;;;;;;;2.60;2.00;;;18.40;99.90;;;;;;4969226;28;20528;-69
2021/10/03 07:18:06;;;;;;;2.70;1.98;;;18.40;99.90;;;;;;4969245;28;20269;-67
2021/10/03 07:20:32;;;;;;;2.38;2.00;;;18.40;99.90;;;;;;4968886;28;20189;-69
2021/10/03 07:22:58;;;;;;;1.90;1.80;;;18.50;99.90;;;;;;4968146;28;20199;-67
2021/10/03 07:25:24;;;;;;;3.78;2.00;;;18.50;99.90;;;;;;4969540;28;20547;-71
2021/10/03 07:27:50;;;;;;;2.15;1.92;;;18.60;99.90;;;;;;4972973;28;20213;-68
2021/10/03 07:30:16;;;;;;;1.80;1.70;;;18.60;99.90;;;;;;4969800;28;20188;-69
2021/10/03 07:32:42;;;;;;;2.70;1.92;;;18.60;99.90;;;;;;4974434;28;20274;-70
2021/10/03 07:35:08;;;;;;;1.63;1.52;;;18.60;99.90;;;;;;4971692;28;20231;-69
2021/10/03 07:37:34;;;;;;;1.92;1.73;;;18.60;99.90;;;;;;4981177;28;20267;-69
2021/10/03 07:40:02;;;;;;;2.88;2.10;;;18.50;99.90;;;;;;4979987;28;20300;-69
2021/10/03 07:42:28;;;;;;;2.50;2.00;;;18.50;99.90;;;;;;4974217;28;20657;-71
2021/10/03 07:44:54;;;;;;;3.03;1.90;;;18.50;99.90;;;;;;4975607;28;20196;-68
2021/10/03 07:47:19;;;;;;;2.83;1.90;;;18.50;99.90;;;;;;4971278;28;20275;-66
2021/10/03 07:49:45;;;;;;;3.80;2.30;;;18.40;99.90;;;;;;4972253;28;20193;-68
2021/10/03 07:52:11;;;;;;;2.50;1.80;;;18.30;99.90;;;;;;4969246;28;20221;-70
2021/10/03 07:54:36;;;;;;;2.55;2.08;;;18.20;99.90;;;;;;4976541;28;20403;-69
2021/10/03 07:57:02;;;;;;;2.47;2.15;;;18.30;99.90;;;;;;4982328;28;20185;-70
2021/10/03 07:59:27;;;;;;;3.58;2.15;;;18.20;99.90;;;;;;4970549;28;20180;-67
2021/10/03 08:01:53;;;;;;;2.50;2.30;;;18.30;99.90;;;;;;4980352;28;20540;-67
2021/10/03 08:04:18;;;;;;;3.70;2.22;;;18.20;99.90;;;;;;4975553;28;20546;-68
2021/10/03 08:06:44;;;;;;;3.25;2.17;;;18.30;99.90;;;;;;4973968;28;20173;-67
2021/10/03 08:09:10;;;;;;;2.30;2.00;;;18.20;99.90;;;;;;4974065;28;20180;-67
2021/10/03 08:11:36;;;;;;;3.63;2.13;;;18.20;99.90;;;;;;4970594;28;20192;-67
2021/10/03 08:14:02;;;;;;;3.92;2.25;;;18.20;99.90;;;;;;4973946;28;20244;-69
2021/10/03 08:16:27;;;;;;;3.33;2.20;;;18.20;99.90;;;;;;4969495;28;20211;-68
2021/10/03 08:18:57;;;;;;;3.58;2.33;;;18.20;99.90;;;;;;4968767;28;20179;-69
2021/10/03 08:21:24;;;;;;;2.20;1.90;;;18.20;99.90;;;;;;4973781;28;20207;-69
2021/10/03 08:23:49;;;;;;;2.65;2.25;;;18.20;99.90;;;;;;4968207;28;20648;-68
2021/10/03 08:26:15;;;;;;;3.03;2.03;;;18.20;99.90;;;;;;4974533;28;20199;-67
2021/10/03 08:28:41;;;;;;;3.40;2.63;;;18.30;99.90;;;;;;4968714;28;20714;-68
2021/10/03 08:31:08;;;;;;;3.40;2.15;;;18.40;99.90;;;;;;4967736;28;20220;-72
2021/10/03 08:33:33;;;;;;;2.95;2.20;;;18.50;99.90;;;;;;4968225;28;20346;-70
2021/10/03 08:35:59;;;;;;;2.70;2.30;;;18.60;99.90;;;;;;4975900;28;20268;-70
2021/10/03 08:38:24;;;;;;;4.85;2.47;;;18.70;99.90;;;;;;4967555;28;20200;-67
2021/10/03 08:40:50;;;;;;;2.20;2.00;;;18.70;99.90;;;;;;4971897;28;20243;-70
2021/10/03 08:43:17;;;;;;;2.50;2.30;;;18.80;99.90;;;;;;4966432;28;20199;-67
2021/10/03 08:45:44;;;;;;;3.53;2.78;;;18.90;99.90;;;;;;4967041;28;20676;-70
2021/10/03 08:48:12;;;;;;;2.45;2.13;;;18.90;99.90;;;;;;4977700;28;20180;-66
2021/10/03 08:50:39;;;;;;;2.58;2.10;;;19.10;99.90;;;;;;4968299;28;20212;-71
2021/10/03 08:53:05;;;;;;;2.50;2.30;;;19.10;99.90;;;;;;4968694;28;20211;-67
2021/10/03 08:55:30;;;;;;;2.20;2.00;;;19.10;99.90;;;;;;4969227;28;20184;-68
2021/10/03 08:57:56;;;;;;;2.42;2.22;;;19.00;99.90;;;;;;4973407;28;20172;-68
2021/10/03 09:00:23;;;;;;;3.67;2.58;;;19.00;99.90;;;;;;4976602;28;20541;-68
2021/10/03 09:03:00;;;;;;;2.78;2.50;;;19.10;99.90;;;;;;4967049;28;20250;-70
2021/10/03 09:05:28;;;;;;;2.83;2.20;;;19.00;99.90;;;;;;4975721;28;20239;-69
2021/10/03 09:08:03;;;;;;;2.25;2.05;;;18.90;99.90;;;;;;4970113;28;20506;-68
2021/10/03 09:10:42;;;;;;;3.40;2.45;;;18.80;99.90;;;;;;4973972;28;20226;-69
2021/10/03 09:13:08;;;;;;;2.95;2.20;;;18.70;99.90;;;;;;4971797;28;20203;-67
2021/10/03 09:15:33;;;;;;;2.20;2.00;;;18.60;99.90;;;;;;4967155;28;20325;-66
2021/10/03 09:17:59;;;;;;;3.28;2.03;;;18.70;99.90;;;;;;4976117;28;20196;-69
2021/10/03 09:20:29;;;;;;;2.17;1.98;;;19.00;99.90;;;;;;4966192;28;20177;-69
2021/10/03 09:22:57;;;;;;;2.13;1.90;;;19.20;99.90;;;;;;4966356;28;20656;-70
2021/10/03 09:25:38;;;;;;;2.67;2.13;;;19.40;99.90;;;;;;4976466;28;20181;-67
2021/10/03 09:28:07;;;;;;;2.05;1.85;;;19.40;99.90;;;;;;4967127;28;20185;-68
2021/10/03 09:30:34;;;;;;;2.45;2.15;;;19.60;99.90;;;;;;4966264;28;20196;-67
2021/10/03 09:33:00;;;;;;;3.50;2.08;;;19.50;99.90;;;;;;4969121;28;20200;-68
2021/10/03 09:35:32;;;;;;;2.17;1.75;;;19.50;99.90;;;;;;4975237;28;20251;-67
2021/10/03 09:37:58;;;;;;;2.10;1.90;;;19.70;99.90;;;;;;4970093;28;20212;-71
2021/10/03 09:40:24;;;;;;;2.92;2.08;;;19.90;99.90;;;;;;4965647;28;20593;-70
2021/10/03 09:43:04;;;;;;;2.22;1.80;;;19.90;99.90;;;;;;4973913;28;20185;-70
2021/10/03 09:45:31;;;;;;;3.45;2.05;;;20.10;99.90;;;;;;4966067;28;20177;-67
2021/10/03 09:48:08;;;;;;;3.22;1.80;;;20.10;99.90;;;;;;4969501;28;20628;-70
2021/10/03 09:50:38;;;;;;;2.30;2.10;;;20.10;99.90;;;;;;4972838;28;20638;-70
2021/10/03 09:53:04;;;;;;;3.47;2.13;;;20.20;99.90;;;;;;4965213;28;20204;-70
2021/10/03 09:55:31;;;;;;;1.98;1.60;;;20.30;99.90;;;;;;4970004;28;20254;-68
2021/10/03 09:57:57;;;;;;;2.47;2.00;;;20.40;99.90;;;;;;4969713;28;20656;-66
2021/10/03 10:00:28;;;;;;;2.55;1.80;;;20.40;99.90;;;;;;4973231;28;20267;-69
2021/10/03 10:02:55;;;;;;;1.73;1.63;;;20.50;99.90;;;;;;4967490;28;20192;-70
2021/10/03 10:05:25;;;;;;;2.15;1.95;;;20.60;99.90;;;;;;4966992;28;20196;-69
2021/10/03 10:07:52;;;;;;;4.07;1.55;;;20.50;99.90;;;;;;4967755;28;20181;-68
2021/10/03 10:10:18;;;;;;;2.03;1.80;;;20.50;99.90;;;;;;4971935;28;20189;-70
2021/10/03 10:13:03;;;;;;;1.90;1.60;;;20.60;99.90;;;;;;4965217;28;20212;-70
2021/10/03 10:15:29;;;;;;;2.70;1.80;;;20.70;99.90;;;;;;4967261;28;20240;-69
2021/10/03 10:17:54;;;;;;;2.35;1.63;;;20.80;99.90;;;;;;4968528;28;20176;-67
2021/10/03 10:20:27;;;;;;;1.80;1.50;;;20.90;99.90;;;;;;4964747;28;20725;-69
2021/10/03 10:22:59;;;;;;;1.73;1.52;;;21.00;99.90;;;;;;4967543;28;20189;-69
2021/10/03 10:25:40;;;;;;;2.25;1.70;;;21.00;99.90;;;;;;4970282;28;20189;-67
2021/10/03 10:28:22;;;;;;;1.98;1.65;;;21.00;99.90;;;;;;4973310;28;20264;-68
2021/10/03 10:31:17;;;;;;;2.08;1.60;;;21.00;99.90;;;;;;4972266;28;20617;-69
2021/10/03 10:33:56;;;;;;;2.42;1.60;;;21.10;99.90;;;;;;4966994;28;20252;-68
2021/10/03 10:36:30;;;;;;;1.90;1.73;;;21.20;99.90;;;;;;4970187;28;20219;-69
2021/10/03 10:39:07;;;;;;;1.77;1.58;;;21.20;99.90;;;;;;4972759;28;20260;-70
2021/10/03 10:41:45;;;;;;;1.95;1.30;;;21.20;99.90;;;;;;4973032;28;20545;-70
2021/10/03 10:44:28;;;;;;;1.98;1.40;;;21.20;99.90;;;;;;4976574;28;20226;-68
2021/10/03 10:47:07;;;;;;;1.45;1.35;;;21.10;99.90;;;;;;4968597;28;20218;-67
2021/10/03 10:49:39;;;;;;;1.48;1.38;;;21.10;99.90;;;;;;4967442;28;20215;-67
2021/10/03 10:52:20;;;;;;;1.80;1.40;;;21.20;99.90;;;;;;4964922;28;20207;-70
2021/10/03 10:55:11;;;;;;;2.08;1.55;;;21.40;99.90;;;;;;4965651;28;20228;-70
2021/10/03 10:57:48;;;;;;;1.40;1.30;;;21.50;99.90;;;;;;4971166;28;20180;-69
2021/10/03 11:00:22;;;;;;;1.60;1.50;;;21.50;99.90;;;;;;4966995;28;20193;-69
2021/10/03 11:02:49;;;;;;;2.53;1.60;;;21.50;99.90;;;;;;4965570;28;20215;-68
2021/10/03 11:05:43;;;;;;;1.98;1.70;;;21.50;99.90;;;;;;4968047;28;20230;-69
2021/10/03 11:08:20;;;;;;;7.18;5.88;;;21.50;99.90;;;;;;4968286;28;20197;-70
2021/10/03 11:11:00;;;;;;;5.28;4.50;;;21.50;99.90;;;;;;4971831;28;20270;-69
2021/10/03 11:13:37;;;;;;;4.25;3.45;;;21.50;99.90;;;;;;4963792;28;20911;-68
2021/10/03 11:16:21;;;;;;;3.90;2.78;;;21.60;99.90;;;;;;4965250;28;20197;-69
2021/10/03 11:18:51;;;;;;;2.85;2.08;;;21.50;99.90;;;;;;4965518;28;20181;-66
2021/10/03 11:21:22;;;;;;;2.60;2.00;;;21.60;99.90;;;;;;4969251;28;20193;-69
2021/10/03 11:23:48;;;;;;;2.00;1.70;;;21.40;99.90;;;;;;4964853;28;20196;-69
2021/10/03 11:26:14;;;;;;;2.28;1.75;;;21.50;99.90;;;;;;4970784;28;20193;-69
2021/10/03 11:28:56;;;;;;;1.45;1.35;;;21.60;99.90;;;;;;4967139;28;20185;-66
2021/10/03 11:31:40;;;;;;;1.85;1.50;;;21.60;99.90;;;;;;4972424;28;20246;-70
2021/10/03 11:34:07;;;;;;;2.38;1.77;;;21.70;99.90;;;;;;4972647;28;20251;-68
2021/10/03 11:36:33;;;;;;;1.50;1.40;;;21.70;99.90;;;;;;4972166;28;20594;-69
2021/10/03 11:39:00;;;;;;;1.75;1.48;;;21.70;99.90;;;;;;4975251;28;20331;-67
2021/10/03 11:41:28;;;;;;;1.58;1.40;;;21.80;99.90;;;;;;4970935;28;20201;-68
2021/10/03 11:43:54;;;;;;;2.25;1.67;;;21.80;99.90;;;;;;4979708;28;20192;-69
2021/10/03 11:46:20;;;;;;;2.33;1.77;;;21.80;99.90;;;;;;4971435;28;20266;-68
2021/10/03 11:48:53;;;;;;;2.80;1.60;;;21.70;99.90;;;;;;4974252;28;20191;-69
2021/10/03 11:51:19;;;;;;;1.70;1.60;;;21.70;99.90;;;;;;4972113;28;20204;-68
2021/10/03 11:53:49;;;;;;;1.50;1.40;;;21.70;99.90;;;;;;4969829;28;20638;-71
2021/10/03 11:56:17;;;;;;;2.42;1.70;;;21.70;99.90;;;;;;4977275;28;20180;-69
2021/10/03 11:58:44;;;;;;;2.30;1.90;;;21.80;99.90;;;;;;4973461;28;20550;-66
2021/10/03 12:01:11;;;;;;;2.53;1.40;;;21.80;99.90;;;;;;4970233;28;20501;-68
2021/10/03 12:03:47;;;;;;;2.30;1.50;;;21.80;99.90;;;;;;4967295;28;20181;-69
2021/10/03 12:06:21;;;;;;;3.38;1.60;;;21.90;99.90;;;;;;4972198;28;20234;-67
2021/10/03 12:08:47;;;;;;;2.20;1.67;;;21.90;99.90;;;;;;4969269;28;20187;-71
2021/10/03 12:11:13;;;;;;;2.20;1.60;;;21.90;99.90;;;;;;4969919;28;20292;-70
2021/10/03 12:13:39;;;;;;;2.42;1.60;;;21.90;99.90;;;;;;4969082;28;20252;-69
2021/10/03 12:16:12;;;;;;;1.75;1.55;;;21.80;99.90;;;;;;4968105;28;20227;-71
2021/10/03 12:18:44;;;;;;;1.70;1.60;;;21.80;99.90;;;;;;4973106;28;20280;-71
2021/10/03 12:21:26;;;;;;;1.50;1.40;;;21.70;99.90;;;;;;4974766;28;20207;-69
2021/10/03 12:24:05;;;;;;;4.60;1.65;;;21.70;99.90;;;;;;4971652;28;20189;-68
2021/10/03 12:26:37;;;;;;;2.80;1.80;;;21.70;99.90;;;;;;4970641;28;20197;-68
2021/10/03 12:29:05;;;;;;;2.42;1.63;;;21.80;99.90;;;;;;4969288;28;20192;-71
2021/10/03 12:31:34;;;;;;;6.38;1.75;;;21.70;99.90;;;;;;4970511;28;20287;-68
2021/10/03 12:34:00;;;;;;;2.25;1.90;;;21.70;99.90;;;;;;4970120;28;20707;-69
2021/10/03 12:36:25;;;;;;;1.98;1.60;;;21.70;99.90;;;;;;4971768;28;20168;-67
2021/10/03 12:38:51;;;;;;;1.90;1.60;;;21.80;99.90;;;;;;4978453;28;20191;-72
2021/10/03 12:41:16;;;;;;;2.90;1.52;;;21.80;99.90;;;;;;4968368;28;20208;-69
2021/10/03 12:43:50;;;;;;;2.42;1.63;;;21.70;99.90;;;;;;4973344;28;20176;-67
2021/10/03 12:46:16;;;;;;;3.22;1.60;;;21.80;99.90;;;;;;4974106;28;20184;-69
2021/10/03 12:48:42;;;;;;;1.73;1.63;;;21.70;99.90;;;;;;4974988;28;20187;-68
2021/10/03 12:51:08;;;;;;;1.90;1.75;;;21.70;99.90;;;;;;4967327;28;20220;-67